Time;durP1;ratioP1;P1;durP2;ratioP2;P2;SDS_P1;SDS_P2;PMS_P1;PMS_P2;Temp;Humidity;BMP_temperature;BMP_pressure;BME280_temperature;BME280_humidity;BME280_pressure;Samples;Min_cycle;Max_cycle;Signal;HPM_P1;HPM_P2
2022/04/24 00:00:39;;;;;;;16.40;10.10;;;;;;;10.59;77.45;98777.98;25055;1315;3055804;-64
2022/04/24 00:03:08;;;;;;;8.70;6.30;;;;;;;10.38;78.59;98774.97;25128;1315;3026700;-65
2022/04/24 00:05:38;;;;;;;12.10;6.90;;;;;;;10.99;76.80;98761.27;25100;1315;3049856;-63
2022/04/24 00:08:08;;;;;;;9.80;7.00;;;;;;;11.26;74.76;98749.13;25133;1316;3026505;-63
2022/04/24 00:10:38;;;;;;;13.60;7.70;;;;;;;11.39;73.88;98740.30;25057;1316;3026531;-64
2022/04/24 00:13:07;;;;;;;10.50;7.60;;;;;;;11.37;73.70;98754.64;25028;1315;3027358;-65
2022/04/24 00:15:39;;;;;;;11.40;7.20;;;;;;;11.18;74.12;98758.34;25038;1315;3030043;-63
2022/04/24 00:18:14;;;;;;;9.90;7.80;;;;;;;11.00;75.10;98761.90;25105;1315;3052657;-62
2022/04/24 00:20:46;;;;;;;12.40;5.90;;;;;;;10.87;75.47;98762.01;25109;1315;3026606;-64
2022/04/24 00:23:16;;;;;;;11.60;5.50;;;;;;;11.33;73.82;98769.98;25062;1316;3026755;-62
2022/04/24 00:25:47;;;;;;;10.50;6.80;;;;;;;11.71;72.02;98779.95;25081;1316;3051880;-64
2022/04/24 00:28:24;;;;;;;7.90;6.30;;;;;;;11.70;71.66;98784.90;25041;1315;3055347;-60
2022/04/24 00:30:58;;;;;;;;;;;;;;;11.70;71.58;98779.00;25070;1316;3057373;-63
2022/04/24 00:33:27;;;;;;;10.00;6.10;;;;;;;11.40;72.33;98785.29;25031;1315;3026821;-64
2022/04/24 00:35:57;;;;;;;9.70;6.90;;;;;;;11.28;72.18;98788.25;25132;1316;3053172;-65
2022/04/24 00:38:27;;;;;;;10.80;8.10;;;;;;;11.00;73.74;98780.64;25075;1316;3026788;-62
2022/04/24 00:40:56;;;;;;;11.90;6.20;;;;;;;10.95;73.93;98768.76;25010;1315;3027622;-61
2022/04/24 00:43:26;;;;;;;7.90;5.90;;;;;;;11.43;72.92;98754.34;25057;1315;3054927;-63
2022/04/24 00:46:39;;;;;;;;;;;;;;;11.63;71.68;98744.92;25074;1315;3059401;-65
2022/04/24 00:49:10;;;;;;;11.50;6.80;;;;;;;11.47;71.81;98747.02;25089;1315;3049656;-66
2022/04/24 00:51:43;;;;;;;12.30;7.70;;;;;;;11.46;71.82;98743.80;25111;1316;3026833;-62
2022/04/24 00:54:12;;;;;;;16.10;8.60;;;;;;;11.22;72.46;98743.80;25095;1315;3026873;-64
2022/04/24 00:56:43;;;;;;;13.00;8.20;;;;;;;11.09;72.78;98749.51;25057;1316;3026048;-67
2022/04/24 00:59:16;;;;;;;9.40;7.30;;;;;;;10.88;73.39;98745.63;25036;1315;3051819;-62
2022/04/24 01:01:46;;;;;;;8.80;6.10;;;;;;;10.83;73.49;98749.68;25066;1315;3026645;-60
2022/04/24 01:04:16;;;;;;;11.40;6.50;;;;;;;11.35;72.39;98742.89;24993;1318;3026576;-62
2022/04/24 01:06:45;;;;;;;12.40;7.10;;;;;;;11.64;70.68;98733.63;25065;1315;3026989;-65
2022/04/24 01:09:23;;;;;;;10.00;7.10;;;;;;;11.66;70.60;98741.39;25054;1315;3052305;-63
2022/04/24 01:11:59;;;;;;;10.00;7.30;;;;;;;11.51;70.96;98734.62;25029;1316;3055380;-63
2022/04/24 01:14:30;;;;;;;11.00;7.30;;;;;;;11.39;71.53;98724.54;25072;1315;3026627;-62
2022/04/24 01:17:00;;;;;;;11.10;8.30;;;;;;;11.17;71.99;98722.27;25064;1315;3052585;-62
2022/04/24 01:19:33;;;;;;;10.40;7.50;;;;;;;10.97;72.84;98723.75;24974;1318;3052139;-64
2022/04/24 01:22:03;;;;;;;9.20;6.30;;;;;;;10.83;73.27;98723.92;25102;1316;3026748;-65
2022/04/24 01:24:32;;;;;;;9.90;6.10;;;;;;;11.22;72.18;98718.92;25028;1315;3028438;-65
2022/04/24 01:27:03;;;;;;;9.10;7.00;;;;;;;11.60;70.45;98718.50;25048;1316;3055197;-64
2022/04/24 01:29:32;;;;;;;10.70;7.00;;;;;;;11.59;70.07;98720.90;25036;1318;3026384;-62
2022/04/24 01:32:06;;;;;;;;;;;;;;;11.49;70.45;98720.41;25074;1315;3070457;-67
2022/04/24 01:34:35;;;;;;;13.10;8.10;;;;;;;11.33;70.90;98720.05;25094;1315;3026599;-64
2022/04/24 01:37:08;;;;;;;13.10;7.80;;;;;;;11.11;71.75;98717.96;25103;1315;3027307;-64
2022/04/24 01:39:37;;;;;;;10.80;8.10;;;;;;;10.99;72.46;98718.55;25038;1315;3026168;-65
2022/04/24 01:42:07;;;;;;;8.90;6.50;;;;;;;10.87;72.82;98713.66;25027;1315;3052046;-61
2022/04/24 01:44:36;;;;;;;9.20;6.30;;;;;;;11.29;71.89;98700.17;25051;1315;3026000;-65
2022/04/24 01:47:06;;;;;;;9.90;7.40;;;;;;;11.48;71.12;98691.39;25103;1316;3026882;-65
2022/04/24 01:49:35;;;;;;;8.50;7.20;;;;;;;11.32;71.26;98686.65;25078;1316;3026480;-65
2022/04/24 01:52:06;;;;;;;9.60;7.30;;;;;;;11.10;72.04;98691.80;25079;1316;3026663;-64
2022/04/24 01:54:36;;;;;;;10.20;7.80;;;;;;;10.88;72.91;98694.85;25094;1316;3052763;-63
2022/04/24 01:57:05;;;;;;;11.50;8.20;;;;;;;10.79;73.26;98693.34;25071;1316;3026444;-64
2022/04/24 01:59:35;;;;;;;7.20;5.90;;;;;;;10.71;73.74;98695.23;25060;1315;3056027;-65
2022/04/24 02:02:08;;;;;;;8.90;6.70;;;;;;;11.03;72.83;98691.66;25031;1315;3054654;-63
2022/04/24 02:04:38;;;;;;;9.70;7.00;;;;;;;11.29;71.65;98683.30;25049;1315;3026592;-65
2022/04/24 02:07:07;;;;;;;10.30;6.90;;;;;;;11.31;71.05;98686.05;25065;1315;3026621;-65
2022/04/24 02:09:40;;;;;;;11.50;7.80;;;;;;;11.20;71.43;98690.72;25063;1315;3026690;-63
2022/04/24 02:12:09;;;;;;;10.40;7.30;;;;;;;11.06;71.82;98688.74;25084;1315;3026800;-64
2022/04/24 02:14:51;;;;;;;16.20;7.90;;;;;;;10.88;72.46;98676.91;25124;1316;3071148;-66
2022/04/24 02:17:23;;;;;;;11.20;7.70;;;;;;;10.73;73.25;98679.43;25057;1316;3026107;-63
2022/04/24 02:19:57;;;;;;;10.60;6.40;;;;;;;10.74;73.66;98675.55;25032;1315;3054229;-62
2022/04/24 02:22:33;;;;;;;10.20;6.90;;;;;;;11.26;71.93;98668.66;25085;1315;3027008;-63
2022/04/24 02:25:04;;;;;;;8.00;6.40;;;;;;;11.51;70.77;98669.08;25077;1315;3051409;-66
2022/04/24 02:27:39;;;;;;;8.80;7.20;;;;;;;11.32;70.98;98666.62;25015;1315;3054940;-65
2022/04/24 02:30:10;;;;;;;12.20;7.50;;;;;;;11.07;71.89;98663.82;25060;1315;3026785;-64
2022/04/24 02:32:41;;;;;;;10.70;8.00;;;;;;;10.90;72.44;98671.02;25041;1315;3026690;-66
2022/04/24 02:35:10;;;;;;;11.70;8.20;;;;;;;10.77;72.82;98673.91;25110;1316;3026768;-64
2022/04/24 02:37:44;;;;;;;11.30;8.50;;;;;;;10.70;73.24;98671.06;25068;1315;3055051;-64
2022/04/24 02:40:15;;;;;;;9.90;6.50;;;;;;;10.58;73.88;98673.67;25042;1315;3026564;-62
2022/04/24 02:42:51;;;;;;;8.90;6.10;;;;;;;10.95;72.95;98675.57;25070;1315;3054438;-64
2022/04/24 02:45:22;;;;;;;10.10;7.10;;;;;;;11.27;71.78;98675.96;25060;1315;3027017;-63
2022/04/24 02:47:51;;;;;;;10.20;7.00;;;;;;;11.28;71.25;98670.29;25058;1315;3026750;-63
2022/04/24 02:50:23;;;;;;;9.70;8.30;;;;;;;11.02;72.11;98686.04;25102;1315;3026408;-61
2022/04/24 02:52:56;;;;;;;10.80;7.10;;;;;;;10.94;72.35;98685.79;25112;1315;3052131;-64
2022/04/24 02:55:28;;;;;;;12.50;8.10;;;;;;;10.75;72.99;98687.38;25097;1316;3026928;-60
2022/04/24 02:57:57;;;;;;;10.40;8.70;;;;;;;10.56;73.81;98690.64;25061;1315;3026917;-66
2022/04/24 03:00:39;;;;;;;11.30;6.50;;;;;;;10.47;74.41;98695.67;25096;1315;3026457;-61
2022/04/24 03:03:10;;;;;;;7.10;5.90;;;;;;;11.15;72.67;98695.08;25122;1316;3054941;-60
2022/04/24 03:05:40;;;;;;;10.30;7.30;;;;;;;11.41;71.27;98691.58;25060;1315;3027106;-63
2022/04/24 03:08:16;;;;;;;11.60;7.60;;;;;;;11.21;71.73;98699.90;25024;1315;3056424;-63
2022/04/24 03:10:46;;;;;;;11.40;8.50;;;;;;;11.17;71.61;98701.27;25045;1315;3026891;-63
2022/04/24 03:13:15;;;;;;;13.70;9.40;;;;;;;10.83;72.81;98711.45;25025;1315;3026274;-62
2022/04/24 03:15:47;;;;;;;10.70;8.50;;;;;;;10.59;73.88;98714.27;25109;1315;3058167;-64
2022/04/24 03:18:17;;;;;;;13.90;8.90;;;;;;;10.51;74.11;98719.92;25073;1315;3029602;-63
2022/04/24 03:20:46;;;;;;;12.00;6.60;;;;;;;10.51;74.24;98718.71;25071;1315;3026624;-64
2022/04/24 03:23:15;;;;;;;8.60;6.60;;;;;;;10.94;73.15;98717.66;25068;1315;3026173;-62
2022/04/24 03:25:45;;;;;;;11.80;7.40;;;;;;;11.41;71.21;98714.02;25139;1315;3051451;-63
2022/04/24 03:28:17;;;;;;;13.20;6.80;;;;;;;11.38;70.99;98718.81;25107;1315;3026454;-63
2022/04/24 03:30:46;;;;;;;10.30;7.80;;;;;;;11.24;71.35;98730.70;25137;1316;3027264;-64
2022/04/24 03:33:16;;;;;;;13.10;8.30;;;;;;;11.05;71.76;98731.73;25075;1316;3026760;-61
2022/04/24 03:35:48;;;;;;;12.30;8.40;;;;;;;10.81;72.61;98736.34;25011;1315;3030147;-62
2022/04/24 03:38:18;;;;;;;11.90;8.30;;;;;;;10.76;72.88;98741.41;25094;1315;3026267;-64
2022/04/24 03:40:47;;;;;;;13.10;8.50;;;;;;;10.59;73.35;98739.31;25094;1315;3070997;-66
2022/04/24 03:43:18;;;;;;;7.60;6.10;;;;;;;10.55;73.76;98740.98;25093;1315;3030047;-64
2022/04/24 03:45:47;;;;;;;9.40;6.10;;;;;;;11.19;72.01;98740.02;25017;1315;3026909;-61
2022/04/24 03:48:17;;;;;;;12.10;6.70;;;;;;;11.50;70.37;98739.09;25041;1315;3071629;-63
2022/04/24 03:50:46;;;;;;;12.60;7.00;;;;;;;11.64;70.04;98733.79;25051;1315;3026471;-64
2022/04/24 03:53:15;;;;;;;10.90;7.50;;;;;;;11.55;69.69;98734.30;25072;1315;3026879;-66
2022/04/24 03:55:47;;;;;;;11.70;7.70;;;;;;;11.07;71.31;98735.99;25035;1315;3071097;-63
2022/04/24 03:58:17;;;;;;;10.70;8.20;;;;;;;10.88;72.31;98746.98;25062;1315;3026833;-66
2022/04/24 04:00:48;;;;;;;11.90;8.30;;;;;;;10.84;72.51;98741.36;24773;1316;3028399;-63
2022/04/24 04:03:18;;;;;;;11.30;8.60;;;;;;;10.71;73.16;98738.95;25087;1315;3054395;-64
2022/04/24 04:05:47;;;;;;;9.80;6.00;;;;;;;10.69;73.30;98739.27;25060;1316;3026651;-64
2022/04/24 04:08:17;;;;;;;10.80;6.90;;;;;;;11.25;72.05;98735.91;25055;1316;3053949;-63
2022/04/24 04:10:46;;;;;;;10.70;6.60;;;;;;;11.72;70.17;98734.97;25128;1316;3026572;-62
2022/04/24 04:13:17;;;;;;;11.60;7.20;;;;;;;11.75;69.66;98737.55;25386;1316;3048134;-61
2022/04/24 04:15:47;;;;;;;10.50;7.40;;;;;;;11.67;69.87;98740.08;25447;1315;3026836;-61
2022/04/24 04:18:16;;;;;;;11.00;7.40;;;;;;;11.46;70.71;98747.67;25379;1315;3026606;-64
2022/04/24 04:20:49;;;;;;;11.50;7.20;;;;;;;11.20;71.44;98748.55;25044;1315;3048893;-62
2022/04/24 04:23:19;;;;;;;14.90;8.40;;;;;;;11.01;72.20;98748.36;25101;1315;3026195;-64
2022/04/24 04:26:00;;;;;;;12.00;8.40;;;;;;;11.01;72.63;98750.62;25112;1316;3055421;-65
2022/04/24 04:28:30;;;;;;;8.60;6.20;;;;;;;10.99;72.77;98746.59;25128;1315;3029294;-64
2022/04/24 04:31:01;;;;;;;9.40;6.50;;;;;;;11.59;71.21;98744.75;25077;1315;3026476;-64
2022/04/24 04:33:30;;;;;;;8.60;6.40;;;;;;;12.05;69.66;98741.40;25072;1315;3027387;-66
2022/04/24 04:36:00;;;;;;;12.00;7.00;;;;;;;12.10;68.95;98742.64;25110;1315;3026363;-66
2022/04/24 04:38:29;;;;;;;12.30;8.40;;;;;;;11.90;69.57;98751.11;25035;1315;3028507;-64
2022/04/24 04:40:58;;;;;;;8.70;6.70;;;;;;;11.80;70.21;98751.73;25078;1315;3055321;-65
2022/04/24 04:43:28;;;;;;;15.60;9.00;;;;;;;11.59;70.47;98757.55;25112;1315;3026858;-64
2022/04/24 04:45:58;;;;;;;11.20;8.50;;;;;;;11.43;71.18;98759.95;25103;1315;3026838;-66
2022/04/24 04:48:27;;;;;;;10.50;7.80;;;;;;;11.42;71.45;98757.23;25080;1315;3026971;-64
2022/04/24 04:50:57;;;;;;;9.10;5.90;;;;;;;11.38;71.39;98754.88;25092;1314;3053098;-64
2022/04/24 04:53:26;;;;;;;7.20;5.50;;;;;;;11.90;70.46;98746.89;25113;1315;3026831;-63
2022/04/24 04:56:01;;;;;;;10.90;7.10;;;;;;;12.47;68.36;98742.33;25077;1315;3054937;-65
2022/04/24 04:58:30;;;;;;;9.60;6.40;;;;;;;12.51;67.48;98742.70;25093;1315;3026872;-65
2022/04/24 05:01:00;;;;;;;14.20;7.40;;;;;;;12.34;67.87;98737.56;25146;1316;3051170;-66
2022/04/24 05:03:43;;;;;;;11.40;7.50;;;;;;;12.23;68.75;98740.36;25143;1316;3055927;-64
2022/04/24 05:06:32;;;;;;;10.80;7.50;;;;;;;12.02;69.22;98743.89;25077;1315;3051497;-65
2022/04/24 05:09:01;;;;;;;14.00;8.10;;;;;;;11.95;70.05;98745.83;25122;1316;3027096;-65
2022/04/24 05:11:33;;;;;;;9.90;7.50;;;;;;;12.04;69.93;98745.52;25148;1316;3027018;-66
2022/04/24 05:14:05;;;;;;;13.80;8.80;;;;;;;12.03;70.06;98748.75;25171;1316;3026686;-65
2022/04/24 05:16:40;;;;;;;9.00;6.10;;;;;;;11.92;70.70;98751.99;25121;1315;3051973;-66
2022/04/24 05:19:11;;;;;;;9.30;5.90;;;;;;;12.48;68.75;98753.70;25091;1315;3026511;-64
2022/04/24 05:23:06;;;;;;;19.40;6.50;;;;;;;13.23;66.17;98751.64;31470;1319;3026296;-63
2022/04/24 05:25:36;;;;;;;12.30;8.50;;;;;;;13.20;65.73;98753.66;24935;1322;3026440;-65
2022/04/24 05:28:05;;;;;;;12.60;8.30;;;;;;;13.34;65.00;98753.55;24952;1321;3026834;-65
2022/04/24 05:30:38;;;;;;;12.90;7.50;;;;;;;13.16;65.50;98750.43;24938;1318;3051590;-66
2022/04/24 05:33:19;;;;;;;13.30;8.30;;;;;;;12.92;66.37;98743.27;24987;1318;3054114;-65
2022/04/24 05:36:02;;;;;;;12.80;8.30;;;;;;;12.75;67.13;98742.91;24907;1318;3055331;-62
2022/04/24 05:38:33;;;;;;;15.20;8.20;;;;;;;12.82;67.14;98743.60;25062;1318;3056981;-64
2022/04/24 05:41:03;;;;;;;11.80;8.30;;;;;;;12.70;67.69;98745.60;25084;1316;3026385;-63
2022/04/24 05:43:32;;;;;;;12.90;9.10;;;;;;;12.81;67.57;98745.76;25071;1318;3027549;-64
2022/04/24 05:46:01;;;;;;;17.80;9.20;;;;;;;12.64;67.47;98746.73;25046;1318;3026262;-66
2022/04/24 05:48:32;;;;;;;15.10;8.70;;;;;;;12.55;68.06;98745.39;25029;1318;3026164;-66
2022/04/24 05:51:01;;;;;;;8.50;6.20;;;;;;;12.71;68.01;98746.05;25014;1318;3026495;-64
2022/04/24 05:53:30;;;;;;;11.70;6.30;;;;;;;13.29;65.70;98744.60;25106;1316;3050296;-65
2022/04/24 05:56:00;;;;;;;12.80;6.90;;;;;;;13.76;64.49;98744.20;25050;1318;3026517;-63
2022/04/24 05:58:29;;;;;;;11.70;7.30;;;;;;;13.97;64.08;98745.23;25121;1316;3026969;-66
2022/04/24 06:00:58;;;;;;;11.80;7.70;;;;;;;13.98;63.58;98744.79;25114;1318;3052589;-63
2022/04/24 06:03:30;;;;;;;10.10;7.10;;;;;;;13.67;64.44;98744.30;25089;1318;3026452;-64
2022/04/24 06:06:00;;;;;;;12.10;6.70;;;;;;;13.74;64.10;98744.78;25061;1318;3027134;-64
2022/04/24 06:08:29;;;;;;;15.00;7.70;;;;;;;13.65;64.11;98753.46;25054;1318;3026406;-64
2022/04/24 06:10:59;;;;;;;11.20;7.40;;;;;;;13.24;63.75;98759.30;25115;1316;3026283;-65
2022/04/24 06:13:30;;;;;;;14.50;9.50;;;;;;;13.27;64.03;98751.98;25137;1318;3026910;-63
2022/04/24 06:16:00;;;;;;;13.60;7.40;;;;;;;13.28;64.13;98757.95;25076;1316;3026456;-63
2022/04/24 06:18:30;;;;;;;13.40;7.00;;;;;;;13.25;63.81;98756.61;25073;1317;3027172;-67
2022/04/24 06:20:59;;;;;;;11.90;7.30;;;;;;;13.26;64.19;98764.09;25092;1318;3026359;-64
2022/04/24 06:23:31;;;;;;;17.20;5.90;;;;;;;13.21;62.46;98759.70;25091;1318;3026697;-64
2022/04/24 06:26:01;;;;;;;14.70;7.20;;;;;;;13.31;62.16;98756.83;25118;1318;3026965;-64
2022/04/24 06:28:30;;;;;;;12.40;7.90;;;;;;;13.44;62.47;98751.16;25167;1315;3026920;-66
2022/04/24 06:31:03;;;;;;;13.10;7.50;;;;;;;13.32;63.30;98751.42;25037;1315;3069790;-63
2022/04/24 06:33:33;;;;;;;13.80;7.20;;;;;;;13.25;63.12;98747.45;25153;1315;3026597;-63
2022/04/24 06:36:03;;;;;;;13.90;7.90;;;;;;;13.28;62.43;98750.66;25059;1315;3026701;-63
2022/04/24 06:38:32;;;;;;;13.70;7.50;;;;;;;13.29;62.65;98755.39;25086;1315;3068686;-66
2022/04/24 06:41:06;;;;;;;19.10;7.50;;;;;;;13.36;63.01;98751.08;25128;1315;3049080;-66
2022/04/24 06:43:35;;;;;;;10.90;7.50;;;;;;;13.51;62.72;98749.04;25183;1315;3026578;-66
2022/04/24 06:46:04;;;;;;;18.10;7.60;;;;;;;13.57;62.30;98757.83;25109;1315;3071044;-66
2022/04/24 06:48:33;;;;;;;13.30;6.80;;;;;;;13.60;61.26;98758.96;25164;1315;3026627;-63
2022/04/24 06:51:03;;;;;;;12.40;6.70;;;;;;;13.65;61.04;98760.15;25094;1315;3049581;-67
2022/04/24 06:53:35;;;;;;;13.60;7.10;;;;;;;13.65;62.00;98760.18;25126;1315;3026422;-65
2022/04/24 06:56:04;;;;;;;13.10;7.90;;;;;;;13.78;62.05;98757.42;25060;1315;3027056;-64
2022/04/24 06:58:35;;;;;;;13.50;7.80;;;;;;;13.78;61.94;98754.61;25141;1315;3027111;-63
2022/04/24 07:01:04;;;;;;;21.50;8.10;;;;;;;13.96;61.86;98756.09;25122;1315;3027070;-63
2022/04/24 07:03:42;;;;;;;21.40;8.70;;;;;;;13.91;61.62;98756.69;25122;1315;3051975;-66
2022/04/24 07:06:11;;;;;;;15.20;8.20;;;;;;;13.87;62.12;98758.22;25157;1315;3028336;-64
2022/04/24 07:08:41;;;;;;;16.20;8.00;;;;;;;14.09;61.73;98747.95;25140;1315;3071233;-68
2022/04/24 07:11:10;;;;;;;19.90;8.60;;;;;;;14.17;62.31;98740.36;25121;1315;3028911;-64
2022/04/24 07:13:42;;;;;;;18.80;7.90;;;;;;;14.30;61.94;98741.56;25096;1315;3051036;-67
2022/04/24 07:16:13;;;;;;;14.90;7.30;;;;;;;14.38;61.16;98747.40;25139;1315;3027445;-68
2022/04/24 07:18:42;;;;;;;12.80;7.60;;;;;;;14.45;59.51;98747.47;25119;1315;3026377;-68
2022/04/24 07:21:12;;;;;;;18.60;8.40;;;;;;;14.60;60.23;98749.29;25099;1315;3051942;-65
2022/04/24 07:23:44;;;;;;;19.50;9.20;;;;;;;14.64;60.43;98754.23;25106;1315;3026855;-65
2022/04/24 07:26:14;;;;;;;22.40;9.60;;;;;;;14.66;60.45;98753.61;25121;1315;3027034;-64
2022/04/24 07:28:47;;;;;;;19.10;9.20;;;;;;;14.65;60.65;98759.50;25124;1315;3026057;-67
2022/04/24 07:31:19;;;;;;;21.10;9.50;;;;;;;14.65;61.16;98760.70;25138;1315;3026661;-66
2022/04/24 07:33:49;;;;;;;20.80;9.30;;;;;;;14.72;60.96;98755.72;25132;1315;3027306;-69
2022/04/24 07:36:18;;;;;;;23.40;11.20;;;;;;;14.89;60.38;98755.42;25085;1315;3026288;-65
2022/04/24 07:38:50;;;;;;;28.10;11.60;;;;;;;15.01;60.57;98755.88;25114;1315;3030150;-66
2022/04/24 07:41:21;;;;;;;18.70;10.00;;;;;;;15.07;60.64;98753.04;25135;1315;3054307;-68
2022/04/24 07:43:50;;;;;;;23.70;10.80;;;;;;;15.14;60.46;98756.38;25092;1315;3026846;-68
2022/04/24 07:46:19;;;;;;;21.00;9.60;;;;;;;15.26;60.55;98752.95;25132;1315;3055099;-67
2022/04/24 07:48:49;;;;;;;19.90;11.10;;;;;;;15.35;60.38;98751.77;25124;1314;3026351;-64
2022/04/24 07:51:18;;;;;;;12.10;7.60;;;;;;;15.17;59.18;98760.48;25096;1315;3049998;-65
2022/04/24 07:53:47;;;;;;;21.20;9.50;;;;;;;15.29;59.59;98760.80;25151;1315;3027402;-66
2022/04/24 07:56:20;;;;;;;17.30;9.50;;;;;;;15.35;59.80;98761.13;25144;1315;3026262;-66
2022/04/24 07:58:49;;;;;;;15.60;7.00;;;;;;;15.57;58.93;98765.27;25114;1315;3027609;-65
2022/04/24 08:01:18;;;;;;;12.70;7.00;;;;;;;15.47;58.79;98764.11;25104;1315;3052356;-65
2022/04/24 08:03:55;;;;;;;15.70;6.70;;;;;;;15.61;58.01;98761.38;25149;1315;3052458;-66
2022/04/24 08:06:24;;;;;;;13.50;7.30;;;;;;;15.68;58.35;98759.17;25135;1315;3026691;-67
2022/04/24 08:09:08;;;;;;;14.70;6.80;;;;;;;15.69;58.26;98757.31;25143;1315;3055290;-65
2022/04/24 08:11:40;;;;;;;17.00;7.00;;;;;;;15.69;57.98;98755.59;25132;1315;3029300;-65
2022/04/24 08:14:09;;;;;;;14.90;5.90;;;;;;;15.70;57.88;98753.52;25130;1315;3026729;-67
2022/04/24 08:16:38;;;;;;;21.50;8.40;;;;;;;15.69;57.80;98758.70;25139;1315;3054444;-64
2022/04/24 08:19:10;;;;;;;18.50;6.70;;;;;;;15.67;57.88;98754.20;25111;1315;3027017;-64
2022/04/24 08:21:40;;;;;;;16.30;6.00;;;;;;;15.88;57.16;98750.82;25095;1315;3026653;-63
2022/04/24 08:24:09;;;;;;;15.70;6.10;;;;;;;16.06;56.50;98748.19;25138;1315;3026558;-66
2022/04/24 08:26:38;;;;;;;13.30;6.10;;;;;;;15.96;56.97;98756.58;25139;1315;3050258;-65
2022/04/24 08:29:08;;;;;;;15.00;6.70;;;;;;;15.94;57.03;98757.81;25089;1315;3026757;-65
2022/04/24 08:31:40;;;;;;;11.20;5.80;;;;;;;15.92;57.03;98764.24;25113;1315;3026391;-65
2022/04/24 08:34:10;;;;;;;10.50;5.20;;;;;;;16.06;56.69;98767.13;25100;1315;3026577;-65
2022/04/24 08:36:39;;;;;;;11.80;6.10;;;;;;;15.82;56.05;98773.14;25179;1315;3026722;-65
2022/04/24 08:39:09;;;;;;;16.90;6.50;;;;;;;15.87;56.41;98772.09;25277;1315;3048871;-63
2022/04/24 08:41:38;;;;;;;15.40;6.30;;;;;;;15.91;57.15;98772.02;25406;1315;3026840;-66
2022/04/24 08:44:08;;;;;;;12.50;5.50;;;;;;;16.01;57.25;98763.05;25394;1315;3026576;-62
2022/04/24 08:46:43;;;;;;;14.50;5.30;;;;;;;16.28;56.89;98762.79;25241;1315;3051678;-64
2022/04/24 08:49:12;;;;;;;11.50;5.70;;;;;;;16.16;57.03;98764.91;25160;1315;3026573;-64
2022/04/24 08:51:41;;;;;;;14.40;5.40;;;;;;;16.18;57.31;98761.21;25178;1315;3027558;-67
2022/04/24 08:54:12;;;;;;;15.30;5.30;;;;;;;16.19;57.92;98759.35;25093;1315;3051658;-64
2022/04/24 08:56:41;;;;;;;12.90;6.30;;;;;;;16.34;56.83;98757.01;25151;1315;3027573;-67
2022/04/24 08:59:11;;;;;;;11.60;5.10;;;;;;;16.36;56.20;98755.42;25166;1315;3029710;-66
2022/04/24 09:01:45;;;;;;;16.40;5.70;;;;;;;16.70;55.17;98749.73;25123;1315;3029706;-64
2022/04/24 09:04:14;;;;;;;11.60;5.70;;;;;;;16.88;55.19;98751.30;25125;1315;3027035;-68
2022/04/24 09:06:53;;;;;;;12.00;5.50;;;;;;;17.04;54.60;98752.45;25140;1315;3028338;-69
2022/04/24 09:09:22;;;;;;;15.10;5.70;;;;;;;16.82;54.83;98756.86;25091;1315;3053507;-67
2022/04/24 09:12:08;;;;;;;14.00;5.50;;;;;;;16.95;54.88;98756.65;25131;1315;3070331;-67
2022/04/24 09:14:38;;;;;;;12.70;5.90;;;;;;;17.01;54.75;98754.33;25109;1315;3051417;-65
2022/04/24 09:17:17;;;;;;;14.40;6.60;;;;;;;17.07;54.38;98752.20;25157;1315;3026756;-65
2022/04/24 09:19:50;;;;;;;12.70;5.50;;;;;;;17.10;54.52;98750.76;25106;1315;3052530;-64
2022/04/24 09:22:22;;;;;;;13.50;5.30;;;;;;;17.30;54.46;98754.50;25187;1315;3026573;-66
2022/04/24 09:24:55;;;;;;;18.00;7.30;;;;;;;17.29;54.38;98760.45;25113;1315;3026245;-65
2022/04/24 09:27:26;;;;;;;16.20;8.10;;;;;;;17.07;55.10;98761.71;25144;1314;3052839;-71
2022/04/24 09:29:59;;;;;;;13.60;6.60;;;;;;;17.12;54.79;98763.33;25147;1315;3027187;-64
2022/04/24 09:32:48;;;;;;;13.50;5.50;;;;;;;16.98;54.72;98768.74;25136;1315;3069584;-64
2022/04/24 09:35:28;;;;;;;13.30;5.70;;;;;;;16.85;55.03;98773.90;25122;1314;3051796;-65
2022/04/24 09:38:14;;;;;;;13.10;6.80;;;;;;;16.81;55.26;98765.25;25148;1315;3051252;-63
2022/04/24 09:40:49;;;;;;;13.40;5.60;;;;;;;16.90;55.40;98764.79;25109;1316;3054883;-66
2022/04/24 09:43:20;;;;;;;12.00;6.10;;;;;;;16.79;55.40;98762.47;25128;1315;3026200;-63
2022/04/24 09:45:53;;;;;;;19.90;7.50;;;;;;;16.81;55.59;98764.40;25084;1315;3026327;-65
2022/04/24 09:48:30;;;;;;;11.60;5.90;;;;;;;16.96;55.61;98760.84;25155;1315;3055242;-67
2022/04/24 09:50:59;;;;;;;15.80;5.70;;;;;;;17.20;54.90;98758.98;25139;1315;3026331;-66
2022/04/24 09:53:29;;;;;;;13.50;5.70;;;;;;;17.41;54.92;98760.66;25097;1315;3027791;-68
2022/04/24 09:56:03;;;;;;;14.50;6.10;;;;;;;17.41;54.04;98761.35;25134;1315;3052037;-65
2022/04/24 09:58:32;;;;;;;13.60;5.90;;;;;;;17.63;53.65;98756.66;25132;1315;3026700;-63
2022/04/24 10:01:01;;;;;;;16.80;6.60;;;;;;;17.65;53.56;98757.75;25077;1315;3026659;-64
2022/04/24 10:03:32;;;;;;;20.80;7.80;;;;;;;17.55;54.30;98764.24;25080;1315;3054991;-67
2022/04/24 10:06:02;;;;;;;21.80;8.00;;;;;;;17.73;54.10;98762.34;25109;1316;3026329;-63
2022/04/24 10:08:33;;;;;;;19.10;8.00;;;;;;;17.79;53.72;98764.45;25073;1315;3051767;-68
2022/04/24 10:11:06;;;;;;;15.60;8.50;;;;;;;17.61;54.49;98765.39;25156;1315;3027564;-64
2022/04/24 10:13:45;;;;;;;15.40;6.00;;;;;;;17.65;54.44;98767.67;25116;1315;3053410;-66
2022/04/24 10:16:19;;;;;;;16.20;6.50;;;;;;;17.55;54.74;98773.91;25109;1315;3026593;-66
2022/04/24 10:19:11;;;;;;;19.00;8.00;;;;;;;17.66;54.95;98773.16;25122;1315;3026042;-68
2022/04/24 10:22:05;;;;;;;18.70;8.40;;;;;;;17.74;54.31;98776.86;25112;1315;3055238;-66
2022/04/24 10:24:41;;;;;;;15.90;6.40;;;;;;;17.83;54.47;98770.25;25401;1315;3052667;-68
2022/04/24 10:27:12;;;;;;;13.70;5.80;;;;;;;17.81;54.09;98776.27;25103;1315;3059318;-67
2022/04/24 10:29:58;;;;;;;14.00;5.60;;;;;;;17.70;54.35;98775.58;25110;1315;3028700;-70
2022/04/24 10:32:30;;;;;;;15.20;7.10;;;;;;;17.68;54.54;98774.77;25132;1317;3053465;-69
2022/04/24 10:35:00;;;;;;;16.20;6.30;;;;;;;17.59;54.46;98775.69;25110;1317;3026587;-69
2022/04/24 10:37:31;;;;;;;20.70;7.20;;;;;;;17.58;54.53;98768.18;25091;1315;3028619;-67
2022/04/24 10:40:00;;;;;;;23.70;7.40;;;;;;;17.77;54.36;98765.86;25104;1315;3027199;-67
2022/04/24 10:42:34;;;;;;;16.60;6.70;;;;;;;17.70;54.71;98771.92;25116;1315;3028206;-67
2022/04/24 10:45:06;;;;;;;16.00;7.20;;;;;;;17.63;54.39;98770.48;25148;1315;3054150;-66
2022/04/24 10:47:49;;;;;;;14.70;6.10;;;;;;;17.90;53.80;98768.66;25167;1315;3059076;-66
2022/04/24 10:50:19;;;;;;;13.90;6.70;;;;;;;17.99;53.82;98770.52;25130;1315;3049556;-66
2022/04/24 10:52:50;;;;;;;12.90;6.50;;;;;;;18.04;53.63;98775.40;25117;1315;3029490;-64
2022/04/24 10:55:26;;;;;;;15.50;6.50;;;;;;;18.24;53.05;98777.10;25126;1315;3028713;-66
2022/04/24 10:58:02;;;;;;;15.20;6.60;;;;;;;18.66;52.46;98775.41;25111;1315;3069460;-65
2022/04/24 11:00:37;;;;;;;18.60;7.00;;;;;;;18.69;52.01;98774.91;25141;1315;3052027;-67
2022/04/24 11:03:13;;;;;;;18.10;6.90;;;;;;;18.75;51.71;98777.23;25159;1315;3054780;-68
2022/04/24 11:05:58;;;;;;;17.90;6.70;;;;;;;18.82;51.53;98774.77;25118;1316;3055588;-67
2022/04/24 11:08:27;;;;;;;17.10;7.00;;;;;;;18.90;51.52;98778.70;25142;1316;3026640;-67
2022/04/24 11:11:03;;;;;;;13.20;5.40;;;;;;;18.98;51.27;98781.46;25124;1316;3026949;-71
2022/04/24 11:13:36;;;;;;;13.30;5.60;;;;;;;18.88;51.02;98777.47;25136;1316;3056167;-69
2022/04/24 11:16:06;;;;;;;17.80;5.90;;;;;;;19.09;50.90;98774.45;25158;1316;3026929;-68
2022/04/24 11:18:36;;;;;;;18.20;7.20;;;;;;;19.29;50.60;98778.95;25102;1315;3049692;-69
2022/04/24 11:21:09;;;;;;;16.60;7.50;;;;;;;19.13;51.20;98774.86;25163;1316;3055035;-68
2022/04/24 11:23:38;;;;;;;13.40;6.60;;;;;;;18.96;51.67;98775.42;25100;1316;3026959;-64
2022/04/24 11:26:12;;;;;;;13.20;6.00;;;;;;;19.07;51.35;98771.92;25136;1315;3051729;-68
2022/04/24 11:28:46;;;;;;;16.90;6.80;;;;;;;19.09;51.24;98769.59;25122;1315;3026695;-68
2022/04/24 11:31:17;;;;;;;15.90;6.60;;;;;;;19.04;51.29;98766.72;25160;1316;3054119;-66
2022/04/24 11:33:58;;;;;;;17.60;6.80;;;;;;;18.95;52.16;98770.00;25122;1316;3071242;-65